NCAR-RAP Real-Time Weather Data

Output produced by METARs form (23 January 2017  20:50 UTC)
found at http://weather.rap.ucar.edu/surface/
 
Conditions at: KSDF observed 23 January 2017  19:56 UTC
Temperature: 8.9°C (48°F)
Dewpoint: 5.6°C (42°F) [RH = 80%]
Pressure (altimeter): 29.60 inches Hg (1002.5 mb)
[Sea-level pressure: 1002.2 mb]
Winds: from the WNW (300 degrees) at 16 MPH (14 knots; 7.3 m/s)
Visibility: 6 miles (10 km)
Ceiling: 1100 feet AGL
Clouds: overcast cloud deck at 1100 feet AGL
Present Weather: HZ  (haze)
KSDF 231956Z 30014KT 6SM HZ OVC011 09/06 A2960 RMK AO2 SLP022 T00890056